sensor_id;sensor_type;location;lat;lon;timestamp;temperature;humidity
40077;DHT22;25777;47.824;18.982;2023-02-14T00:01:36;-0.70;99.90
40077;DHT22;25777;47.824;18.982;2023-02-14T00:04:25;-0.70;99.90
40077;DHT22;25777;47.824;18.982;2023-02-14T00:07:04;-0.70;99.90
40077;DHT22;25777;47.824;18.982;2023-02-14T00:09:30;-0.60;99.90
40077;DHT22;25777;47.824;18.982;2023-02-14T00:11:57;-0.70;99.90
40077;DHT22;25777;47.824;18.982;2023-02-14T00:14:24;-0.80;99.90
40077;DHT22;25777;47.824;18.982;2023-02-14T00:17:11;-0.90;99.90
40077;DHT22;25777;47.824;18.982;2023-02-14T00:19:44;-0.80;99.90
40077;DHT22;25777;47.824;18.982;2023-02-14T00:22:19;-0.80;99.90
40077;DHT22;25777;47.824;18.982;2023-02-14T00:24:51;-0.90;99.90
40077;DHT22;25777;47.824;18.982;2023-02-14T00:27:17;-0.90;99.90
40077;DHT22;25777;47.824;18.982;2023-02-14T00:30:02;-1.00;99.90
40077;DHT22;25777;47.824;18.982;2023-02-14T00:32:45;-1.00;99.90
40077;DHT22;25777;47.824;18.982;2023-02-14T00:35:36;-0.90;99.90
40077;DHT22;25777;47.824;18.982;2023-02-14T00:38:06;-0.90;99.90
40077;DHT22;25777;47.824;18.982;2023-02-14T00:40:42;-0.80;99.90
40077;DHT22;25777;47.824;18.982;2023-02-14T00:43:09;-0.90;99.90
40077;DHT22;25777;47.824;18.982;2023-02-14T00:45:37;-0.90;99.90
40077;DHT22;25777;47.824;18.982;2023-02-14T00:48:03;-0.80;99.90
40077;DHT22;25777;47.824;18.982;2023-02-14T00:50:32;-0.80;99.90
40077;DHT22;25777;47.824;18.982;2023-02-14T00:52:58;-0.90;99.90
40077;DHT22;25777;47.824;18.982;2023-02-14T00:55:49;-0.90;99.90
40077;DHT22;25777;47.824;18.982;2023-02-14T00:58:16;-0.90;99.90
40077;DHT22;25777;47.824;18.982;2023-02-14T01:00:51;-0.80;99.90
40077;DHT22;25777;47.824;18.982;2023-02-14T01:03:23;-0.80;99.90
40077;DHT22;25777;47.824;18.982;2023-02-14T01:06:07;-0.80;99.90
40077;DHT22;25777;47.824;18.982;2023-02-14T01:08:35;-0.90;99.90
40077;DHT22;25777;47.824;18.982;2023-02-14T01:11:22;-0.90;99.90
40077;DHT22;25777;47.824;18.982;2023-02-14T01:13:50;-0.90;99.90
40077;DHT22;25777;47.824;18.982;2023-02-14T01:16:20;-1.00;99.90
40077;DHT22;25777;47.824;18.982;2023-02-14T01:18:55;-1.00;99.90
40077;DHT22;25777;47.824;18.982;2023-02-14T01:21:27;-0.90;99.90
40077;DHT22;25777;47.824;18.982;2023-02-14T01:24:04;-1.00;99.90
40077;DHT22;25777;47.824;18.982;2023-02-14T01:26:30;-0.90;99.90
40077;DHT22;25777;47.824;18.982;2023-02-14T01:29:00;-0.80;99.90
40077;DHT22;25777;47.824;18.982;2023-02-14T01:31:30;-0.80;99.90
40077;DHT22;25777;47.824;18.982;2023-02-14T01:33:58;-0.90;99.90
40077;DHT22;25777;47.824;18.982;2023-02-14T01:36:28;-0.70;99.90
40077;DHT22;25777;47.824;18.982;2023-02-14T01:38:58;-0.60;99.90
40077;DHT22;25777;47.824;18.982;2023-02-14T01:41:32;-0.60;99.90
40077;DHT22;25777;47.824;18.982;2023-02-14T01:46:41;-0.60;99.90
40077;DHT22;25777;47.824;18.982;2023-02-14T01:51:54;-0.70;99.90
40077;DHT22;25777;47.824;18.982;2023-02-14T01:54:31;-0.70;99.90
40077;DHT22;25777;47.824;18.982;2023-02-14T01:57:06;-0.70;99.90
40077;DHT22;25777;47.824;18.982;2023-02-14T01:59:44;-0.80;99.90
40077;DHT22;25777;47.824;18.982;2023-02-14T02:02:14;-0.80;99.90
40077;DHT22;25777;47.824;18.982;2023-02-14T02:04:55;-0.90;99.90
40077;DHT22;25777;47.824;18.982;2023-02-14T02:07:28;-0.90;99.90
40077;DHT22;25777;47.824;18.982;2023-02-14T02:10:07;-0.80;99.90
40077;DHT22;25777;47.824;18.982;2023-02-14T02:12:35;-0.70;99.90
40077;DHT22;25777;47.824;18.982;2023-02-14T02:15:03;-0.80;99.90
40077;DHT22;25777;47.824;18.982;2023-02-14T02:33:30;-1.10;99.90
40077;DHT22;25777;47.824;18.982;2023-02-14T02:45:10;-1.30;99.90
40077;DHT22;25777;47.824;18.982;2023-02-14T02:48:08;-1.30;99.90
40077;DHT22;25777;47.824;18.982;2023-02-14T02:50:48;-1.40;99.90
40077;DHT22;25777;47.824;18.982;2023-02-14T02:56:28;-1.50;99.90
40077;DHT22;25777;47.824;18.982;2023-02-14T02:59:36;-1.60;99.90
40077;DHT22;25777;47.824;18.982;2023-02-14T03:02:15;-1.60;99.90
40077;DHT22;25777;47.824;18.982;2023-02-14T03:04:54;-1.60;99.90
40077;DHT22;25777;47.824;18.982;2023-02-14T03:10:17;-1.40;99.90
40077;DHT22;25777;47.824;18.982;2023-02-14T03:13:16;-1.50;99.90
40077;DHT22;25777;47.824;18.982;2023-02-14T03:32:19;-1.30;99.90
40077;DHT22;25777;47.824;18.982;2023-02-14T03:34:56;-1.30;99.90
40077;DHT22;25777;47.824;18.982;2023-02-14T03:38:01;-1.40;99.90
40077;DHT22;25777;47.824;18.982;2023-02-14T03:40:54;-1.40;99.90
40077;DHT22;25777;47.824;18.982;2023-02-14T03:43:30;-1.40;99.90
40077;DHT22;25777;47.824;18.982;2023-02-14T03:48:58;-1.40;99.90
40077;DHT22;25777;47.824;18.982;2023-02-14T03:51:28;-1.50;99.90
40077;DHT22;25777;47.824;18.982;2023-02-14T03:53:59;-1.60;99.90
40077;DHT22;25777;47.824;18.982;2023-02-14T03:56:51;-1.50;99.90
40077;DHT22;25777;47.824;18.982;2023-02-14T03:59:22;-1.40;99.90
40077;DHT22;25777;47.824;18.982;2023-02-14T04:04:44;-1.30;99.90
40077;DHT22;25777;47.824;18.982;2023-02-14T04:07:20;-1.40;99.90
40077;DHT22;25777;47.824;18.982;2023-02-14T04:09:46;-1.50;99.90
40077;DHT22;25777;47.824;18.982;2023-02-14T04:12:22;-1.60;99.90
40077;DHT22;25777;47.824;18.982;2023-02-14T04:14:50;-1.50;99.90
40077;DHT22;25777;47.824;18.982;2023-02-14T04:17:16;-1.50;99.90
40077;DHT22;25777;47.824;18.982;2023-02-14T04:20:06;-1.40;99.90
40077;DHT22;25777;47.824;18.982;2023-02-14T04:22:33;-1.40;99.90
40077;DHT22;25777;47.824;18.982;2023-02-14T04:25:10;-1.30;99.90
40077;DHT22;25777;47.824;18.982;2023-02-14T04:27:46;-1.40;99.90
40077;DHT22;25777;47.824;18.982;2023-02-14T04:30:16;-1.30;99.90
40077;DHT22;25777;47.824;18.982;2023-02-14T04:32:47;-1.40;99.90
40077;DHT22;25777;47.824;18.982;2023-02-14T04:35:13;-1.50;99.90
40077;DHT22;25777;47.824;18.982;2023-02-14T04:37:40;-1.50;99.90
40077;DHT22;25777;47.824;18.982;2023-02-14T04:40:08;-1.40;99.90
40077;DHT22;25777;47.824;18.982;2023-02-14T04:42:39;-1.50;99.90
40077;DHT22;25777;47.824;18.982;2023-02-14T04:45:05;-1.60;99.90
40077;DHT22;25777;47.824;18.982;2023-02-14T04:47:31;-1.70;99.90
40077;DHT22;25777;47.824;18.982;2023-02-14T04:49:58;-1.70;99.90
40077;DHT22;25777;47.824;18.982;2023-02-14T04:52:30;-1.70;99.90
40077;DHT22;25777;47.824;18.982;2023-02-14T04:54:56;-1.70;99.90
40077;DHT22;25777;47.824;18.982;2023-02-14T04:57:23;-1.60;99.90
40077;DHT22;25777;47.824;18.982;2023-02-14T04:59:56;-1.60;99.90
40077;DHT22;25777;47.824;18.982;2023-02-14T05:02:23;-1.60;99.90
40077;DHT22;25777;47.824;18.982;2023-02-14T05:05:05;-1.20;99.90
40077;DHT22;25777;47.824;18.982;2023-02-14T05:07:31;-1.70;99.90
40077;DHT22;25777;47.824;18.982;2023-02-14T05:09:57;-1.70;99.90
40077;DHT22;25777;47.824;18.982;2023-02-14T05:12:24;-1.70;99.90
40077;DHT22;25777;47.824;18.982;2023-02-14T05:15:07;-1.70;99.90
40077;DHT22;25777;47.824;18.982;2023-02-14T05:17:33;-1.70;99.90
40077;DHT22;25777;47.824;18.982;2023-02-14T05:20:00;-1.70;99.90
40077;DHT22;25777;47.824;18.982;2023-02-14T05:22:27;-1.80;99.90
40077;DHT22;25777;47.824;18.982;2023-02-14T05:24:53;-1.70;99.90
40077;DHT22;25777;47.824;18.982;2023-02-14T05:27:22;-1.60;99.90
40077;DHT22;25777;47.824;18.982;2023-02-14T05:30:03;-1.70;99.90
40077;DHT22;25777;47.824;18.982;2023-02-14T05:32:43;-1.80;99.90
40077;DHT22;25777;47.824;18.982;2023-02-14T05:35:14;-1.70;99.90
40077;DHT22;25777;47.824;18.982;2023-02-14T05:37:44;-1.70;99.90
40077;DHT22;25777;47.824;18.982;2023-02-14T05:40:17;-1.80;99.90
40077;DHT22;25777;47.824;18.982;2023-02-14T05:42:43;-2.00;99.90
40077;DHT22;25777;47.824;18.982;2023-02-14T05:45:09;-2.00;99.90
40077;DHT22;25777;47.824;18.982;2023-02-14T05:47:37;-2.10;99.90
40077;DHT22;25777;47.824;18.982;2023-02-14T05:50:04;-2.20;99.90
40077;DHT22;25777;47.824;18.982;2023-02-14T05:52:39;-2.20;99.90
40077;DHT22;25777;47.824;18.982;2023-02-14T05:55:05;-2.10;99.90
40077;DHT22;25777;47.824;18.982;2023-02-14T05:57:31;-2.00;99.90
40077;DHT22;25777;47.824;18.982;2023-02-14T05:59:57;-2.00;99.90
40077;DHT22;25777;47.824;18.982;2023-02-14T06:02:23;-2.00;99.90
40077;DHT22;25777;47.824;18.982;2023-02-14T06:05:04;-1.90;99.90
40077;DHT22;25777;47.824;18.982;2023-02-14T06:07:33;-2.00;99.90
40077;DHT22;25777;47.824;18.982;2023-02-14T06:09:59;-1.90;99.90
40077;DHT22;25777;47.824;18.982;2023-02-14T06:12:27;-1.80;99.90
40077;DHT22;25777;47.824;18.982;2023-02-14T06:14:53;-1.80;99.90
40077;DHT22;25777;47.824;18.982;2023-02-14T06:17:22;-1.90;99.90
40077;DHT22;25777;47.824;18.982;2023-02-14T06:19:47;-2.00;99.90
40077;DHT22;25777;47.824;18.982;2023-02-14T06:22:13;-2.00;99.90
40077;DHT22;25777;47.824;18.982;2023-02-14T06:24:42;-2.00;99.90
40077;DHT22;25777;47.824;18.982;2023-02-14T06:27:10;-1.90;99.90
40077;DHT22;25777;47.824;18.982;2023-02-14T06:29:37;-1.90;99.90
40077;DHT22;25777;47.824;18.982;2023-02-14T06:32:22;-1.90;99.90
40077;DHT22;25777;47.824;18.982;2023-02-14T06:34:50;-1.90;99.90
40077;DHT22;25777;47.824;18.982;2023-02-14T06:37:16;-1.90;99.90
40077;DHT22;25777;47.824;18.982;2023-02-14T06:39:47;-1.70;99.90
40077;DHT22;25777;47.824;18.982;2023-02-14T06:42:24;-1.70;99.90
40077;DHT22;25777;47.824;18.982;2023-02-14T06:45:00;-1.70;99.90
40077;DHT22;25777;47.824;18.982;2023-02-14T06:47:29;-1.60;99.90
40077;DHT22;25777;47.824;18.982;2023-02-14T06:49:57;-1.50;99.90
40077;DHT22;25777;47.824;18.982;2023-02-14T06:52:26;-1.40;99.90
40077;DHT22;25777;47.824;18.982;2023-02-14T06:54:52;-1.30;99.90
40077;DHT22;25777;47.824;18.982;2023-02-14T06:57:41;-1.20;99.90
40077;DHT22;25777;47.824;18.982;2023-02-14T07:00:16;-1.20;99.90
40077;DHT22;25777;47.824;18.982;2023-02-14T07:02:44;-1.10;99.90
40077;DHT22;25777;47.824;18.982;2023-02-14T07:05:20;-1.00;99.90
40077;DHT22;25777;47.824;18.982;2023-02-14T07:07:51;-0.90;99.90
40077;DHT22;25777;47.824;18.982;2023-02-14T07:10:18;-0.80;99.90
40077;DHT22;25777;47.824;18.982;2023-02-14T07:12:44;-0.70;99.90
40077;DHT22;25777;47.824;18.982;2023-02-14T07:15:26;-0.60;99.90
40077;DHT22;25777;47.824;18.982;2023-02-14T07:17:53;-0.50;99.90
40077;DHT22;25777;47.824;18.982;2023-02-14T07:20:19;-0.40;99.90
40077;DHT22;25777;47.824;18.982;2023-02-14T07:22:48;-0.30;99.90
40077;DHT22;25777;47.824;18.982;2023-02-14T07:25:17;-0.20;99.90
40077;DHT22;25777;47.824;18.982;2023-02-14T07:27:49;-0.10;99.90
40077;DHT22;25777;47.824;18.982;2023-02-14T07:30:20;0.20;99.90
40077;DHT22;25777;47.824;18.982;2023-02-14T07:32:47;0.30;99.90
40077;DHT22;25777;47.824;18.982;2023-02-14T07:35:14;0.40;99.90
40077;DHT22;25777;47.824;18.982;2023-02-14T07:38:05;0.60;99.90
40077;DHT22;25777;47.824;18.982;2023-02-14T07:40:32;0.90;99.90
40077;DHT22;25777;47.824;18.982;2023-02-14T07:43:07;1.10;99.90
40077;DHT22;25777;47.824;18.982;2023-02-14T07:48:40;1.30;99.90
40077;DHT22;25777;47.824;18.982;2023-02-14T07:51:15;1.50;99.90
40077;DHT22;25777;47.824;18.982;2023-02-14T07:53:46;1.70;99.90
40077;DHT22;25777;47.824;18.982;2023-02-14T07:56:19;1.90;99.90
40077;DHT22;25777;47.824;18.982;2023-02-14T07:58:46;1.90;99.90
40077;DHT22;25777;47.824;18.982;2023-02-14T08:01:11;2.10;99.90
40077;DHT22;25777;47.824;18.982;2023-02-14T08:03:41;2.20;99.90
40077;DHT22;25777;47.824;18.982;2023-02-14T08:06:23;2.30;99.90
40077;DHT22;25777;47.824;18.982;2023-02-14T08:09:00;2.40;99.90
40077;DHT22;25777;47.824;18.982;2023-02-14T08:11:32;2.50;99.90
40077;DHT22;25777;47.824;18.982;2023-02-14T08:14:17;2.70;99.90
40077;DHT22;25777;47.824;18.982;2023-02-14T08:16:55;2.90;99.90
40077;DHT22;25777;47.824;18.982;2023-02-14T08:19:39;3.00;99.90
40077;DHT22;25777;47.824;18.982;2023-02-14T08:22:22;3.20;99.90
40077;DHT22;25777;47.824;18.982;2023-02-14T08:24:50;3.40;99.90
40077;DHT22;25777;47.824;18.982;2023-02-14T08:27:16;3.60;99.90
40077;DHT22;25777;47.824;18.982;2023-02-14T08:29:59;3.80;99.90
40077;DHT22;25777;47.824;18.982;2023-02-14T08:32:25;3.90;99.90
40077;DHT22;25777;47.824;18.982;2023-02-14T08:34:52;4.00;99.90
40077;DHT22;25777;47.824;18.982;2023-02-14T08:37:18;4.00;99.90
40077;DHT22;25777;47.824;18.982;2023-02-14T08:39:57;4.10;99.90
40077;DHT22;25777;47.824;18.982;2023-02-14T08:42:23;4.20;99.90
40077;DHT22;25777;47.824;18.982;2023-02-14T08:44:50;4.40;99.90
40077;DHT22;25777;47.824;18.982;2023-02-14T08:47:16;4.60;99.90
40077;DHT22;25777;47.824;18.982;2023-02-14T08:50:01;4.70;99.90
40077;DHT22;25777;47.824;18.982;2023-02-14T08:52:33;4.80;99.90
40077;DHT22;25777;47.824;18.982;2023-02-14T08:54:59;5.00;99.90
40077;DHT22;25777;47.824;18.982;2023-02-14T08:57:28;5.00;99.90
40077;DHT22;25777;47.824;18.982;2023-02-14T08:59:59;5.10;99.90
40077;DHT22;25777;47.824;18.982;2023-02-14T09:02:25;5.20;99.90
40077;DHT22;25777;47.824;18.982;2023-02-14T09:04:52;5.20;99.90
40077;DHT22;25777;47.824;18.982;2023-02-14T09:07:18;5.40;99.90
40077;DHT22;25777;47.824;18.982;2023-02-14T09:09:53;5.60;99.90
40077;DHT22;25777;47.824;18.982;2023-02-14T09:12:19;5.80;99.90
40077;DHT22;25777;47.824;18.982;2023-02-14T09:15:04;5.90;99.90
40077;DHT22;25777;47.824;18.982;2023-02-14T09:17:48;6.00;99.90
40077;DHT22;25777;47.824;18.982;2023-02-14T09:20:22;6.30;99.90
40077;DHT22;25777;47.824;18.982;2023-02-14T09:22:59;6.40;99.90
40077;DHT22;25777;47.824;18.982;2023-02-14T09:25:26;6.20;99.90
40077;DHT22;25777;47.824;18.982;2023-02-14T09:28:16;6.20;99.90
40077;DHT22;25777;47.824;18.982;2023-02-14T09:30:46;6.20;99.90
40077;DHT22;25777;47.824;18.982;2023-02-14T09:33:30;6.50;99.90
40077;DHT22;25777;47.824;18.982;2023-02-14T09:35:57;6.70;99.90
40077;DHT22;25777;47.824;18.982;2023-02-14T09:38:42;6.80;99.90
40077;DHT22;25777;47.824;18.982;2023-02-14T09:47:04;7.60;99.90
40077;DHT22;25777;47.824;18.982;2023-02-14T09:49:36;7.70;99.90
40077;DHT22;25777;47.824;18.982;2023-02-14T09:52:25;7.60;98.90
40077;DHT22;25777;47.824;18.982;2023-02-14T09:54:55;7.70;99.90
40077;DHT22;25777;47.824;18.982;2023-02-14T10:00:47;8.30;96.80
40077;DHT22;25777;47.824;18.982;2023-02-14T10:09:23;8.90;95.30
40077;DHT22;25777;47.824;18.982;2023-02-14T10:11:53;9.20;95.80
40077;DHT22;25777;47.824;18.982;2023-02-14T10:14:29;8.80;93.90
40077;DHT22;25777;47.824;18.982;2023-02-14T10:17:27;9.10;95.70
40077;DHT22;25777;47.824;18.982;2023-02-14T10:20:05;9.30;91.90
40077;DHT22;25777;47.824;18.982;2023-02-14T10:23:35;9.20;92.20
40077;DHT22;25777;47.824;18.982;2023-02-14T10:26:05;9.10;91.80
40077;DHT22;25777;47.824;18.982;2023-02-14T10:35:02;9.10;90.80
40077;DHT22;25777;47.824;18.982;2023-02-14T10:49:01;10.10;89.40
40077;DHT22;25777;47.824;18.982;2023-02-14T10:55:18;10.50;84.20
40077;DHT22;25777;47.824;18.982;2023-02-14T10:58:00;10.40;83.00
40077;DHT22;25777;47.824;18.982;2023-02-14T11:00:33;10.30;86.10
40077;DHT22;25777;47.824;18.982;2023-02-14T11:03:10;10.00;85.70
40077;DHT22;25777;47.824;18.982;2023-02-14T11:05:45;9.70;86.60
40077;DHT22;25777;47.824;18.982;2023-02-14T11:10:47;10.00;84.10
40077;DHT22;25777;47.824;18.982;2023-02-14T11:16:12;10.00;84.00
40077;DHT22;25777;47.824;18.982;2023-02-14T11:18:51;10.70;82.00
40077;DHT22;25777;47.824;18.982;2023-02-14T11:21:40;11.10;80.60
40077;DHT22;25777;47.824;18.982;2023-02-14T11:24:29;11.20;79.10
40077;DHT22;25777;47.824;18.982;2023-02-14T11:29:48;10.50;78.70
40077;DHT22;25777;47.824;18.982;2023-02-14T11:32:26;11.10;82.30
40077;DHT22;25777;47.824;18.982;2023-02-14T11:35:17;11.00;77.40
40077;DHT22;25777;47.824;18.982;2023-02-14T11:41:11;11.00;78.80
40077;DHT22;25777;47.824;18.982;2023-02-14T11:43:48;10.70;79.10
40077;DHT22;25777;47.824;18.982;2023-02-14T11:46:25;11.20;78.80
40077;DHT22;25777;47.824;18.982;2023-02-14T11:52:14;11.30;77.20
40077;DHT22;25777;47.824;18.982;2023-02-14T11:55:00;11.40;77.10
40077;DHT22;25777;47.824;18.982;2023-02-14T11:57:48;11.20;75.30
40077;DHT22;25777;47.824;18.982;2023-02-14T12:00:21;11.20;76.10
40077;DHT22;25777;47.824;18.982;2023-02-14T12:03:01;11.10;76.00
40077;DHT22;25777;47.824;18.982;2023-02-14T12:05:35;11.10;76.50
40077;DHT22;25777;47.824;18.982;2023-02-14T12:08:33;11.30;75.70
40077;DHT22;25777;47.824;18.982;2023-02-14T12:11:05;11.00;77.50
40077;DHT22;25777;47.824;18.982;2023-02-14T12:13:52;10.60;74.90
40077;DHT22;25777;47.824;18.982;2023-02-14T12:16:34;10.50;77.30
40077;DHT22;25777;47.824;18.982;2023-02-14T12:19:12;10.40;77.80
40077;DHT22;25777;47.824;18.982;2023-02-14T12:21:56;10.10;78.00
40077;DHT22;25777;47.824;18.982;2023-02-14T12:27:55;9.70;81.30
40077;DHT22;25777;47.824;18.982;2023-02-14T12:30:23;9.90;80.40
40077;DHT22;25777;47.824;18.982;2023-02-14T12:32:55;9.70;81.10
40077;DHT22;25777;47.824;18.982;2023-02-14T12:44:01;9.40;81.20
40077;DHT22;25777;47.824;18.982;2023-02-14T12:50:08;9.70;81.00
40077;DHT22;25777;47.824;18.982;2023-02-14T13:12:33;8.90;82.20
40077;DHT22;25777;47.824;18.982;2023-02-14T13:15:30;8.60;84.60
40077;DHT22;25777;47.824;18.982;2023-02-14T13:20:53;8.40;84.30
40077;DHT22;25777;47.824;18.982;2023-02-14T13:23:42;8.20;86.20
40077;DHT22;25777;47.824;18.982;2023-02-14T13:26:40;8.00;87.20
40077;DHT22;25777;47.824;18.982;2023-02-14T13:29:25;8.30;84.90
40077;DHT22;25777;47.824;18.982;2023-02-14T13:31:57;8.50;83.20
40077;DHT22;25777;47.824;18.982;2023-02-14T13:34:31;8.60;82.80
40077;DHT22;25777;47.824;18.982;2023-02-14T13:37:02;8.70;82.50
40077;DHT22;25777;47.824;18.982;2023-02-14T13:39:43;8.40;84.20
40077;DHT22;25777;47.824;18.982;2023-02-14T13:42:12;8.50;82.80
40077;DHT22;25777;47.824;18.982;2023-02-14T13:44:41;8.30;84.40
40077;DHT22;25777;47.824;18.982;2023-02-14T13:47:28;8.10;84.40
40077;DHT22;25777;47.824;18.982;2023-02-14T13:50:01;8.00;85.20
40077;DHT22;25777;47.824;18.982;2023-02-14T13:52:46;8.00;86.90
40077;DHT22;25777;47.824;18.982;2023-02-14T13:55:22;7.80;86.90
40077;DHT22;25777;47.824;18.982;2023-02-14T13:58:14;7.90;86.20
40077;DHT22;25777;47.824;18.982;2023-02-14T14:00:56;7.70;87.20
40077;DHT22;25777;47.824;18.982;2023-02-14T14:04:01;7.50;89.00
40077;DHT22;25777;47.824;18.982;2023-02-14T14:09:53;7.30;90.30
40077;DHT22;25777;47.824;18.982;2023-02-14T14:15:11;7.70;89.40
40077;DHT22;25777;47.824;18.982;2023-02-14T14:17:48;7.90;88.00
40077;DHT22;25777;47.824;18.982;2023-02-14T14:20:46;7.90;88.30
40077;DHT22;25777;47.824;18.982;2023-02-14T14:23:29;7.60;89.40
40077;DHT22;25777;47.824;18.982;2023-02-14T14:25:56;7.60;89.30
40077;DHT22;25777;47.824;18.982;2023-02-14T14:28:26;7.40;90.50
40077;DHT22;25777;47.824;18.982;2023-02-14T14:30:57;7.50;90.00
40077;DHT22;25777;47.824;18.982;2023-02-14T14:33:33;7.30;90.40
40077;DHT22;25777;47.824;18.982;2023-02-14T14:36:11;7.00;91.20
40077;DHT22;25777;47.824;18.982;2023-02-14T14:39:03;6.70;92.20
40077;DHT22;25777;47.824;18.982;2023-02-14T14:41:30;6.50;92.40
40077;DHT22;25777;47.824;18.982;2023-02-14T14:44:13;6.50;92.60
40077;DHT22;25777;47.824;18.982;2023-02-14T14:46:40;6.40;92.80
40077;DHT22;25777;47.824;18.982;2023-02-14T14:49:15;6.40;93.00
40077;DHT22;25777;47.824;18.982;2023-02-14T14:51:42;6.20;93.30
40077;DHT22;25777;47.824;18.982;2023-02-14T14:54:15;6.10;93.80
40077;DHT22;25777;47.824;18.982;2023-02-14T14:56:50;6.00;94.20
40077;DHT22;25777;47.824;18.982;2023-02-14T14:59:34;5.90;94.90
40077;DHT22;25777;47.824;18.982;2023-02-14T15:02:02;5.90;95.10
40077;DHT22;25777;47.824;18.982;2023-02-14T15:04:34;5.80;95.10
40077;DHT22;25777;47.824;18.982;2023-02-14T15:10:36;5.40;96.50
40077;DHT22;25777;47.824;18.982;2023-02-14T15:13:02;5.10;97.60
40077;DHT22;25777;47.824;18.982;2023-02-14T15:16:06;5.00;98.40
40077;DHT22;25777;47.824;18.982;2023-02-14T15:18:33;5.00;98.80
40077;DHT22;25777;47.824;18.982;2023-02-14T15:21:14;4.80;99.40
40077;DHT22;25777;47.824;18.982;2023-02-14T15:23:41;4.70;99.90
40077;DHT22;25777;47.824;18.982;2023-02-14T15:26:25;4.70;99.90
40077;DHT22;25777;47.824;18.982;2023-02-14T15:29:00;4.60;99.90
40077;DHT22;25777;47.824;18.982;2023-02-14T15:31:37;4.50;99.90
40077;DHT22;25777;47.824;18.982;2023-02-14T15:34:09;4.50;99.90
40077;DHT22;25777;47.824;18.982;2023-02-14T15:36:51;4.30;99.90
40077;DHT22;25777;47.824;18.982;2023-02-14T15:39:42;4.10;99.90
40077;DHT22;25777;47.824;18.982;2023-02-14T15:42:29;3.90;99.90
40077;DHT22;25777;47.824;18.982;2023-02-14T15:48:13;3.70;99.90
40077;DHT22;25777;47.824;18.982;2023-02-14T15:57:24;3.30;99.90
40077;DHT22;25777;47.824;18.982;2023-02-14T15:59:52;3.20;99.90
40077;DHT22;25777;47.824;18.982;2023-02-14T16:05:21;3.00;99.90
40077;DHT22;25777;47.824;18.982;2023-02-14T16:08:02;2.90;99.90
40077;DHT22;25777;47.824;18.982;2023-02-14T16:10:34;2.80;99.90
40077;DHT22;25777;47.824;18.982;2023-02-14T16:13:22;2.70;99.90
40077;DHT22;25777;47.824;18.982;2023-02-14T16:16:06;2.50;99.90
40077;DHT22;25777;47.824;18.982;2023-02-14T16:18:41;2.40;99.90
40077;DHT22;25777;47.824;18.982;2023-02-14T16:26:42;2.20;99.90
40077;DHT22;25777;47.824;18.982;2023-02-14T16:29:17;2.20;99.90
40077;DHT22;25777;47.824;18.982;2023-02-14T16:31:55;2.00;99.90
40077;DHT22;25777;47.824;18.982;2023-02-14T16:34:23;1.80;99.90
40077;DHT22;25777;47.824;18.982;2023-02-14T16:36:48;1.70;99.90
40077;DHT22;25777;47.824;18.982;2023-02-14T16:39:34;1.70;99.90
40077;DHT22;25777;47.824;18.982;2023-02-14T16:42:05;1.60;99.90
40077;DHT22;25777;47.824;18.982;2023-02-14T16:44:44;1.60;99.90
40077;DHT22;25777;47.824;18.982;2023-02-14T16:47:35;1.50;99.90
40077;DHT22;25777;47.824;18.982;2023-02-14T16:50:03;1.50;99.90
40077;DHT22;25777;47.824;18.982;2023-02-14T16:52:53;1.50;99.90
40077;DHT22;25777;47.824;18.982;2023-02-14T16:55:28;1.50;99.90
40077;DHT22;25777;47.824;18.982;2023-02-14T16:57:59;1.40;99.90
40077;DHT22;25777;47.824;18.982;2023-02-14T17:00:28;1.20;99.90
40077;DHT22;25777;47.824;18.982;2023-02-14T17:03:16;1.10;99.90
40077;DHT22;25777;47.824;18.982;2023-02-14T17:08:55;1.00;99.90
40077;DHT22;25777;47.824;18.982;2023-02-14T17:11:26;1.00;99.90
40077;DHT22;25777;47.824;18.982;2023-02-14T17:13:55;0.90;99.90
40077;DHT22;25777;47.824;18.982;2023-02-14T17:16:22;0.80;99.90
40077;DHT22;25777;47.824;18.982;2023-02-14T17:18:50;0.90;99.90
40077;DHT22;25777;47.824;18.982;2023-02-14T17:21:21;0.90;99.90
40077;DHT22;25777;47.824;18.982;2023-02-14T17:23:54;0.80;99.90
40077;DHT22;25777;47.824;18.982;2023-02-14T17:26:22;0.60;99.90
40077;DHT22;25777;47.824;18.982;2023-02-14T17:28:49;0.60;99.90
40077;DHT22;25777;47.824;18.982;2023-02-14T17:31:15;0.50;99.90
40077;DHT22;25777;47.824;18.982;2023-02-14T17:33:42;0.50;99.90
40077;DHT22;25777;47.824;18.982;2023-02-14T17:36:10;0.40;99.90
40077;DHT22;25777;47.824;18.982;2023-02-14T17:38:41;0.40;99.90
40077;DHT22;25777;47.824;18.982;2023-02-14T17:41:14;0.40;99.90
40077;DHT22;25777;47.824;18.982;2023-02-14T17:43:50;0.40;99.90
40077;DHT22;25777;47.824;18.982;2023-02-14T17:46:17;0.40;99.90
40077;DHT22;25777;47.824;18.982;2023-02-14T17:48:47;0.50;99.90
40077;DHT22;25777;47.824;18.982;2023-02-14T17:51:15;0.60;99.90
40077;DHT22;25777;47.824;18.982;2023-02-14T17:53:43;0.60;99.90
40077;DHT22;25777;47.824;18.982;2023-02-14T17:56:14;0.40;99.90
40077;DHT22;25777;47.824;18.982;2023-02-14T17:58:50;0.40;99.90
40077;DHT22;25777;47.824;18.982;2023-02-14T18:01:22;0.40;99.90
40077;DHT22;25777;47.824;18.982;2023-02-14T18:04:20;0.30;99.90
40077;DHT22;25777;47.824;18.982;2023-02-14T18:06:50;0.10;99.90
40077;DHT22;25777;47.824;18.982;2023-02-14T18:09:19;0.10;99.90
40077;DHT22;25777;47.824;18.982;2023-02-14T18:12:02;0.00;99.90
40077;DHT22;25777;47.824;18.982;2023-02-14T18:14:29;0.00;99.90
40077;DHT22;25777;47.824;18.982;2023-02-14T18:17:02;0.10;99.90
40077;DHT22;25777;47.824;18.982;2023-02-14T18:19:55;0.10;99.90
40077;DHT22;25777;47.824;18.982;2023-02-14T18:22:22;0.00;99.90
40077;DHT22;25777;47.824;18.982;2023-02-14T18:24:48;0.00;99.90
40077;DHT22;25777;47.824;18.982;2023-02-14T18:27:16;0.00;99.90
40077;DHT22;25777;47.824;18.982;2023-02-14T18:29:42;0.00;99.90
40077;DHT22;25777;47.824;18.982;2023-02-14T18:32:09;0.00;99.90
40077;DHT22;25777;47.824;18.982;2023-02-14T18:34:36;0.00;99.90
40077;DHT22;25777;47.824;18.982;2023-02-14T18:37:12;0.00;99.90
40077;DHT22;25777;47.824;18.982;2023-02-14T18:39:56;0.10;99.90
40077;DHT22;25777;47.824;18.982;2023-02-14T18:42:23;-0.10;99.90
40077;DHT22;25777;47.824;18.982;2023-02-14T18:44:56;-0.20;99.90
40077;DHT22;25777;47.824;18.982;2023-02-14T18:47:25;-0.20;99.90
40077;DHT22;25777;47.824;18.982;2023-02-14T18:49:52;-0.10;99.90
40077;DHT22;25777;47.824;18.982;2023-02-14T18:52:37;-0.10;99.90
40077;DHT22;25777;47.824;18.982;2023-02-14T18:55:05;-0.20;99.90
40077;DHT22;25777;47.824;18.982;2023-02-14T18:57:37;-0.20;99.90
40077;DHT22;25777;47.824;18.982;2023-02-14T19:00:04;-0.30;99.90
40077;DHT22;25777;47.824;18.982;2023-02-14T19:02:34;-0.30;99.90
40077;DHT22;25777;47.824;18.982;2023-02-14T19:05:05;-0.20;99.90
40077;DHT22;25777;47.824;18.982;2023-02-14T19:07:39;-0.20;99.90
40077;DHT22;25777;47.824;18.982;2023-02-14T19:10:06;-0.20;99.90